createdAt,value
2022-10-31T00:01:22.536Z,46.87
2022-10-31T00:03:50.672Z,41.63
2022-10-31T00:06:20.233Z,42.53
2022-10-31T00:08:49.272Z,42.50
2022-10-31T00:11:17.640Z,41.80
2022-10-31T00:13:45.755Z,42.20
2022-10-31T00:16:18.275Z,45.97
2022-10-31T00:18:49.675Z,45.27
2022-10-31T00:21:19.622Z,42.67
2022-10-31T00:23:47.704Z,44.53
2022-10-31T00:26:16.240Z,47.47
2022-10-31T00:28:44.720Z,45.67
2022-10-31T00:31:14.470Z,45.77
2022-10-31T00:33:55.132Z,42.30
2022-10-31T00:36:25.184Z,43.73
2022-10-31T00:38:53.655Z,42.90
2022-10-31T00:41:21.664Z,41.57
2022-10-31T00:43:49.740Z,46.73
2022-10-31T00:46:18.215Z,51.00
2022-10-31T00:48:46.376Z,53.20
2022-10-31T00:51:14.694Z,53.77
2022-10-31T00:53:44.511Z,52.97
2022-10-31T00:56:12.698Z,51.90
2022-10-31T00:58:40.759Z,46.30
2022-10-31T01:01:09.310Z,47.10
2022-10-31T01:03:39.940Z,50.10
2022-10-31T01:06:11.271Z,51.60
2022-10-31T01:08:40.860Z,49.97
2022-10-31T01:11:13.908Z,52.63
2022-10-31T01:13:42.996Z,65.60
2022-10-31T01:16:13.822Z,46.97
2022-10-31T01:18:42.330Z,49.60
2022-10-31T01:21:12.301Z,47.77
2022-10-31T01:23:41.066Z,53.60
2022-10-31T01:26:15.275Z,49.90
2022-10-31T01:28:47.937Z,52.03
2022-10-31T01:31:17.285Z,50.13
2022-10-31T01:33:45.557Z,54.03
2022-10-31T01:36:15.810Z,52.47
2022-10-31T01:38:44.250Z,59.83
2022-10-31T01:41:15.879Z,55.83
2022-10-31T01:43:45.578Z,54.87
2022-10-31T01:46:14.533Z,51.80
2022-10-31T01:48:43.704Z,58.23
2022-10-31T01:51:15.089Z,57.87
2022-10-31T01:53:45.659Z,58.53
2022-10-31T01:56:17.203Z,62.40
2022-10-31T01:58:48.002Z,68.50
2022-10-31T02:01:18.768Z,66.13
2022-10-31T02:03:49.200Z,57.73
2022-10-31T02:06:28.515Z,58.70
2022-10-31T02:08:59.401Z,63.93
2022-10-31T02:11:30.719Z,71.50
2022-10-31T02:14:00.747Z,56.57
2022-10-31T02:16:29.151Z,63.23
2022-10-31T02:18:59.043Z,70.87
2022-10-31T02:21:39.016Z,62.57
2022-10-31T02:24:45.252Z,56.13
2022-10-31T02:27:29.585Z,61.77
2022-10-31T02:30:14.165Z,58.57
2022-10-31T02:32:56.761Z,59.90
2022-10-31T02:35:43.132Z,53.87
2022-10-31T02:38:21.824Z,53.17
2022-10-31T02:40:56.269Z,58.77
2022-10-31T02:43:30.818Z,53.20
2022-10-31T02:46:05.539Z,52.73
2022-10-31T02:48:38.220Z,52.77
2022-10-31T02:51:07.419Z,50.40
2022-10-31T02:53:36.396Z,55.63
2022-10-31T02:56:09.175Z,53.33
2022-10-31T02:58:40.441Z,49.07
2022-10-31T03:01:36.239Z,46.57
2022-10-31T03:04:28.404Z,51.43
2022-10-31T03:07:03.347Z,46.30
2022-10-31T03:09:39.007Z,52.37
2022-10-31T03:12:12.399Z,55.63
2022-10-31T03:14:45.781Z,48.17
2022-10-31T03:17:19.900Z,50.60
2022-10-31T03:19:55.643Z,48.27
2022-10-31T03:22:28.031Z,51.77
2022-10-31T03:24:59.208Z,50.40
2022-10-31T03:27:32.175Z,52.17
2022-10-31T03:30:04.178Z,49.87
2022-10-31T03:32:38.471Z,57.83
2022-10-31T03:35:11.206Z,55.03
2022-10-31T03:37:42.137Z,59.73
2022-10-31T03:40:12.989Z,52.10
2022-10-31T03:42:44.275Z,52.53
2022-10-31T03:45:17.622Z,48.53
2022-10-31T03:47:46.895Z,49.33
2022-10-31T03:50:18.219Z,50.07
2022-10-31T03:52:51.978Z,49.70
2022-10-31T03:55:22.293Z,47.80
2022-10-31T03:57:56.499Z,44.93
2022-10-31T04:00:25.216Z,44.23
2022-10-31T04:03:01.424Z,42.20
2022-10-31T04:05:33.166Z,47.83
2022-10-31T04:08:04.824Z,40.60
2022-10-31T04:10:34.784Z,44.67
2022-10-31T04:13:07.875Z,42.00
2022-10-31T04:15:38.401Z,42.17
2022-10-31T04:18:07.919Z,47.37
2022-10-31T04:20:39.642Z,46.70
2022-10-31T04:23:17.868Z,42.07
2022-10-31T04:25:46.292Z,46.20
2022-10-31T04:28:14.418Z,40.47
2022-10-31T04:30:42.798Z,41.50
2022-10-31T04:33:14.208Z,45.00
2022-10-31T04:35:43.886Z,50.60
2022-10-31T04:38:12.106Z,45.83
2022-10-31T04:40:40.455Z,46.57
2022-10-31T04:43:09.875Z,40.63
2022-10-31T04:45:39.202Z,49.57
2022-10-31T04:48:07.655Z,41.57
2022-10-31T04:50:35.794Z,41.90
2022-10-31T04:53:05.424Z,42.50
2022-10-31T04:55:33.611Z,52.27
2022-10-31T04:58:01.876Z,45.13
2022-10-31T05:00:31.494Z,42.93
2022-10-31T05:03:00.883Z,42.77
2022-10-31T05:05:31.696Z,44.67
2022-10-31T05:07:59.926Z,39.47
2022-10-31T05:10:31.283Z,45.70
2022-10-31T05:13:02.091Z,42.17
2022-10-31T05:15:31.000Z,41.63
2022-10-31T05:18:00.580Z,41.43
2022-10-31T05:20:32.410Z,40.90
2022-10-31T05:23:01.198Z,39.90
2022-10-31T05:25:31.229Z,41.40
2022-10-31T05:28:00.993Z,39.10
2022-10-31T05:30:31.109Z,37.37
2022-10-31T05:32:59.983Z,37.23
2022-10-31T05:35:30.475Z,40.20
2022-10-31T05:37:59.614Z,34.30
2022-10-31T05:40:29.263Z,39.33
2022-10-31T05:43:01.104Z,37.23
2022-10-31T05:45:29.607Z,38.73
2022-10-31T05:48:00.028Z,42.67
2022-10-31T05:50:30.101Z,37.97
2022-10-31T05:52:59.717Z,37.73
2022-10-31T05:55:28.091Z,37.77
2022-10-31T05:57:57.151Z,35.93
2022-10-31T06:00:27.841Z,35.50
2022-10-31T06:03:01.089Z,37.43
2022-10-31T06:05:30.056Z,36.87
2022-10-31T06:07:58.645Z,31.67
2022-10-31T06:10:27.797Z,29.63
2022-10-31T06:12:56.328Z,32.30
2022-10-31T06:15:24.916Z,33.33
2022-10-31T06:18:06.202Z,38.77
2022-10-31T06:20:35.329Z,33.17
2022-10-31T06:23:04.244Z,30.63
2022-10-31T06:25:34.117Z,30.90
2022-10-31T06:28:02.148Z,32.50
2022-10-31T06:30:30.578Z,26.60
2022-10-31T06:33:05.978Z,29.60
2022-10-31T06:35:34.209Z,27.07
2022-10-31T06:38:02.470Z,30.70
2022-10-31T06:40:31.116Z,34.10
2022-10-31T06:43:00.302Z,28.60
2022-10-31T06:45:29.517Z,32.50
2022-10-31T06:50:48.487Z,31.23
2022-10-31T06:53:16.922Z,32.00
2022-10-31T06:55:45.356Z,34.40
2022-10-31T06:58:13.604Z,31.80
2022-10-31T07:00:42.084Z,31.97
2022-10-31T07:03:13.602Z,33.83
2022-10-31T07:05:42.588Z,33.07
2022-10-31T07:08:13.997Z,34.10
2022-10-31T07:10:43.680Z,38.30
2022-10-31T07:13:14.195Z,30.37
2022-10-31T07:15:44.823Z,31.37
2022-10-31T07:18:14.272Z,28.03
2022-10-31T07:20:42.403Z,25.20
2022-10-31T07:23:13.083Z,25.03
2022-10-31T07:25:41.969Z,27.13
2022-10-31T07:28:10.702Z,28.27
2022-10-31T07:30:39.623Z,25.80
2022-10-31T07:33:08.480Z,30.73
2022-10-31T07:35:36.676Z,29.60
2022-10-31T07:38:14.462Z,31.87
2022-10-31T07:40:43.558Z,28.60
2022-10-31T07:43:14.488Z,33.00
2022-10-31T07:45:43.394Z,34.77
2022-10-31T07:48:14.200Z,28.03
2022-10-31T07:50:42.467Z,27.37
2022-10-31T07:53:13.800Z,25.43
2022-10-31T07:55:42.298Z,26.17
2022-10-31T07:58:11.918Z,29.30
2022-10-31T08:00:42.016Z,25.57
2022-10-31T08:03:12.618Z,28.53
2022-10-31T08:05:42.078Z,28.20
2022-10-31T08:08:10.901Z,30.57
2022-10-31T08:10:41.637Z,32.17
2022-10-31T08:13:12.156Z,22.93
2022-10-31T08:15:42.603Z,30.17
2022-10-31T08:18:15.217Z,24.30
2022-10-31T08:20:44.517Z,27.93
2022-10-31T08:23:18.476Z,25.77
2022-10-31T08:25:50.403Z,23.13
2022-10-31T08:28:21.726Z,25.40
2022-10-31T08:30:52.400Z,25.90
2022-10-31T08:33:27.512Z,22.23
2022-10-31T08:36:02.923Z,22.27
2022-10-31T08:38:59.177Z,20.87
2022-10-31T08:41:44.873Z,26.17
2022-10-31T08:44:19.955Z,21.53
2022-10-31T08:46:50.887Z,23.97
2022-10-31T08:49:32.596Z,22.57
2022-10-31T08:52:05.501Z,21.73
2022-10-31T08:54:35.120Z,24.23
2022-10-31T08:57:20.556Z,24.20
2022-10-31T08:59:58.712Z,24.73
2022-10-31T09:02:32.819Z,20.40
2022-10-31T09:05:08.081Z,24.07
2022-10-31T09:07:36.862Z,32.40
2022-10-31T09:10:25.652Z,19.97
2022-10-31T09:13:08.094Z,24.13
2022-10-31T09:15:44.035Z,21.90
2022-10-31T09:18:18.463Z,22.60
2022-10-31T09:20:53.595Z,17.60
2022-10-31T09:23:28.534Z,16.87
2022-10-31T09:25:57.808Z,16.40
2022-10-31T09:28:27.333Z,21.17
2022-10-31T09:30:56.566Z,17.17
2022-10-31T09:33:25.424Z,16.37
2022-10-31T09:35:53.562Z,13.97
2022-10-31T09:38:24.449Z,19.77
2022-10-31T09:41:04.638Z,17.73
2022-10-31T09:43:42.139Z,21.73
2022-10-31T09:46:16.651Z,14.77
2022-10-31T09:49:05.843Z,19.87
2022-10-31T09:51:36.928Z,17.73
2022-10-31T09:54:14.411Z,20.87
2022-10-31T09:56:53.363Z,18.00
2022-10-31T09:59:34.351Z,19.03
2022-10-31T10:02:20.337Z,19.07
2022-10-31T10:05:00.754Z,22.10
2022-10-31T10:07:51.007Z,22.03
2022-10-31T10:10:35.949Z,16.30
2022-10-31T10:13:44.365Z,17.93
2022-10-31T10:16:45.734Z,17.27
2022-10-31T10:19:41.856Z,22.00
2022-10-31T10:22:26.051Z,21.90
2022-10-31T10:25:21.914Z,18.67
2022-10-31T10:27:59.132Z,24.27
2022-10-31T10:30:35.801Z,19.97
2022-10-31T10:33:11.955Z,14.63
2022-10-31T10:35:45.063Z,20.43
2022-10-31T10:38:21.067Z,13.40
2022-10-31T10:40:50.382Z,20.60
2022-10-31T10:43:24.155Z,20.83
2022-10-31T10:46:21.507Z,22.93
2022-10-31T10:48:58.007Z,19.20
2022-10-31T10:54:57.429Z,16.57
2022-10-31T10:57:39.543Z,11.77
2022-10-31T11:00:22.770Z,15.73
2022-10-31T11:02:51.402Z,13.03
2022-10-31T11:05:36.839Z,12.10
2022-10-31T11:08:05.760Z,9.73
2022-10-31T11:10:34.455Z,15.30
2022-10-31T11:13:18.775Z,14.73
2022-10-31T11:15:56.880Z,12.20
2022-10-31T11:18:28.229Z,11.10
2022-10-31T11:21:00.109Z,10.23
2022-10-31T11:23:30.062Z,10.70
2022-10-31T11:26:00.886Z,10.23
2022-10-31T11:28:32.221Z,10.40
2022-10-31T11:31:05.797Z,10.53
2022-10-31T11:33:40.266Z,10.03
2022-10-31T11:36:18.464Z,9.67
2022-10-31T11:38:47.197Z,14.77
2022-10-31T11:41:18.313Z,11.80
2022-10-31T11:43:52.343Z,10.37
2022-10-31T11:46:24.182Z,10.73
2022-10-31T11:48:56.649Z,11.30
2022-10-31T11:51:29.746Z,12.20
2022-10-31T11:54:03.637Z,8.53
2022-10-31T11:56:41.121Z,7.93
2022-10-31T11:59:27.100Z,11.27
2022-10-31T12:01:58.712Z,10.77
2022-10-31T12:04:37.426Z,11.90
2022-10-31T12:07:07.208Z,7.60
2022-10-31T12:09:37.933Z,6.20
2022-10-31T12:12:38.688Z,11.17
2022-10-31T12:15:30.278Z,11.03
2022-10-31T12:18:20.186Z,8.67
2022-10-31T12:21:01.089Z,10.73
2022-10-31T12:23:40.987Z,12.40
2022-10-31T12:26:18.937Z,11.37
2022-10-31T12:29:19.519Z,10.90
2022-10-31T12:32:02.068Z,9.73
2022-10-31T12:34:56.798Z,8.70
2022-10-31T12:37:40.469Z,13.17
2022-10-31T12:40:29.027Z,12.70
2022-10-31T12:43:11.940Z,11.13
2022-10-31T12:45:54.316Z,10.50
2022-10-31T12:48:42.108Z,8.30
2022-10-31T12:51:18.227Z,4.80
2022-10-31T12:54:02.048Z,9.27
2022-10-31T12:56:48.830Z,11.00
2022-10-31T12:59:23.157Z,11.67
2022-10-31T13:01:57.544Z,10.93
2022-10-31T13:04:37.591Z,11.97
2022-10-31T13:07:12.924Z,9.63
2022-10-31T13:09:47.350Z,11.80
2022-10-31T13:12:21.355Z,9.50
2022-10-31T13:14:52.842Z,9.73
2022-10-31T13:17:28.088Z,8.77
2022-10-31T13:20:17.392Z,11.43
2022-10-31T13:22:51.004Z,9.00
2022-10-31T13:25:24.013Z,10.07
2022-10-31T13:27:58.796Z,10.40
2022-10-31T13:30:29.579Z,10.70
2022-10-31T13:33:04.509Z,7.00
2022-10-31T13:35:40.576Z,11.27
2022-10-31T13:38:19.212Z,13.20
2022-10-31T13:40:55.417Z,10.23
2022-10-31T13:43:34.443Z,11.97
2022-10-31T13:46:02.625Z,9.17
2022-10-31T13:48:43.961Z,15.17
2022-10-31T13:51:13.302Z,10.60
2022-10-31T13:53:46.271Z,12.83
2022-10-31T13:56:21.406Z,13.10
2022-10-31T13:59:16.149Z,11.03
2022-10-31T14:01:50.875Z,15.47
2022-10-31T14:04:25.605Z,16.60
2022-10-31T14:07:01.359Z,8.07
2022-10-31T14:09:35.518Z,17.07
2022-10-31T14:12:08.663Z,9.97
2022-10-31T14:14:50.277Z,15.10
2022-10-31T14:17:22.886Z,21.07
2022-10-31T14:20:27.068Z,12.90
2022-10-31T14:22:55.430Z,14.13
2022-10-31T14:25:32.815Z,16.97
2022-10-31T14:28:02.508Z,14.87
2022-10-31T14:30:33.082Z,13.83
2022-10-31T14:33:07.411Z,11.50
2022-10-31T14:35:51.602Z,10.37
2022-10-31T14:38:33.506Z,11.43
2022-10-31T14:41:22.773Z,9.20
2022-10-31T14:44:38.827Z,11.30
2022-10-31T14:47:18.805Z,11.33
2022-10-31T14:50:06.488Z,8.43
2022-10-31T14:52:37.736Z,9.60
2022-10-31T14:55:10.307Z,9.07
2022-10-31T14:57:41.564Z,12.50
2022-10-31T15:00:23.191Z,10.73
2022-10-31T15:03:05.625Z,12.27
2022-10-31T15:05:36.553Z,17.77
2022-10-31T15:08:05.146Z,11.00
2022-10-31T15:10:39.341Z,10.33
2022-10-31T15:13:20.609Z,9.83
2022-10-31T15:15:52.294Z,13.23
2022-10-31T15:18:25.629Z,12.33
2022-10-31T15:20:56.472Z,11.20
2022-10-31T15:23:28.686Z,12.10
2022-10-31T15:26:02.079Z,15.60
2022-10-31T15:28:32.363Z,14.17
2022-10-31T15:31:02.883Z,10.03
2022-10-31T15:33:38.808Z,10.20
2022-10-31T15:36:23.892Z,11.20
2022-10-31T15:38:58.387Z,9.47
2022-10-31T15:41:32.397Z,10.37
2022-10-31T15:44:10.581Z,9.87
2022-10-31T15:46:39.043Z,12.60
2022-10-31T15:49:24.660Z,12.70
2022-10-31T15:51:54.587Z,15.87
2022-10-31T15:54:24.512Z,20.30
2022-10-31T15:56:53.342Z,17.67
2022-10-31T15:59:24.744Z,16.27
2022-10-31T16:02:04.748Z,14.97
2022-10-31T16:04:34.723Z,18.97
2022-10-31T16:07:05.605Z,22.83
2022-10-31T16:09:33.772Z,22.17
2022-10-31T16:12:02.022Z,25.17
2022-10-31T16:14:34.244Z,20.43
2022-10-31T16:17:04.800Z,19.60
2022-10-31T16:19:37.328Z,22.80
2022-10-31T16:22:10.184Z,21.50
2022-10-31T16:24:48.782Z,22.27
2022-10-31T16:27:24.528Z,19.53
2022-10-31T16:29:53.136Z,17.33
2022-10-31T16:32:30.029Z,21.57
2022-10-31T16:35:24.350Z,20.70
2022-10-31T16:37:52.917Z,20.20
2022-10-31T16:40:21.850Z,16.93
2022-10-31T16:42:51.685Z,16.90
2022-10-31T16:45:22.210Z,20.77
2022-10-31T16:47:52.160Z,20.27
2022-10-31T16:50:25.540Z,21.27
2022-10-31T16:53:12.963Z,21.43
2022-10-31T16:55:46.950Z,19.67
2022-10-31T16:58:25.531Z,19.47
2022-10-31T17:00:54.921Z,24.20
2022-10-31T17:03:23.569Z,18.83
2022-10-31T17:05:53.378Z,20.23
2022-10-31T17:08:21.654Z,20.10
2022-10-31T17:10:53.562Z,20.03
2022-10-31T17:13:25.496Z,18.70
2022-10-31T17:15:56.216Z,22.93
2022-10-31T17:18:27.549Z,19.93
2022-10-31T17:21:00.286Z,20.47
2022-10-31T17:23:29.521Z,17.50
2022-10-31T17:25:58.045Z,18.27
2022-10-31T17:28:30.568Z,19.83
2022-10-31T17:30:59.491Z,19.70
2022-10-31T17:33:28.128Z,17.03
2022-10-31T17:35:59.028Z,15.50
2022-10-31T17:38:28.463Z,16.00
2022-10-31T17:40:56.656Z,16.07
2022-10-31T17:43:27.351Z,15.87
2022-10-31T17:45:55.514Z,15.47
2022-10-31T17:48:25.060Z,17.00
2022-10-31T17:50:53.683Z,14.93
2022-10-31T17:53:23.921Z,16.50
2022-10-31T17:55:52.410Z,17.87
2022-10-31T17:58:20.875Z,17.27
2022-10-31T18:00:51.327Z,17.37
2022-10-31T18:03:20.912Z,21.17
2022-10-31T18:05:54.965Z,18.27
2022-10-31T18:08:29.517Z,19.73
2022-10-31T18:13:33.170Z,18.73
2022-10-31T18:16:01.806Z,14.90
2022-10-31T18:18:30.104Z,16.80
2022-10-31T18:20:59.273Z,15.70
2022-10-31T18:23:28.779Z,15.77
2022-10-31T18:25:56.970Z,13.37
2022-10-31T18:28:25.285Z,16.33
2022-10-31T18:30:53.269Z,11.67
2022-10-31T18:33:21.503Z,15.27
2022-10-31T18:35:49.806Z,15.07
2022-10-31T18:38:18.070Z,16.50
2022-10-31T18:43:36.687Z,16.63
2022-10-31T18:46:05.852Z,17.93
2022-10-31T18:48:34.325Z,16.23
2022-10-31T18:53:33.282Z,17.20
2022-10-31T18:56:02.153Z,12.87
2022-10-31T18:58:30.720Z,16.60
2022-10-31T19:01:00.645Z,18.13
2022-10-31T19:03:28.913Z,22.13
2022-10-31T19:05:57.914Z,20.60
2022-10-31T19:08:26.005Z,21.07
2022-10-31T19:10:54.144Z,16.63
2022-10-31T19:13:22.731Z,17.37
2022-10-31T19:15:50.716Z,21.03
2022-10-31T19:18:20.070Z,16.87
2022-10-31T19:20:48.569Z,15.37
2022-10-31T19:23:17.556Z,19.10
2022-10-31T19:25:45.488Z,13.47
2022-10-31T19:28:13.811Z,18.87
2022-10-31T19:30:41.938Z,19.03
2022-10-31T19:33:09.901Z,16.87
2022-10-31T19:35:39.872Z,15.60
2022-10-31T19:38:07.954Z,20.60
2022-10-31T19:40:37.756Z,21.90
2022-10-31T19:43:05.992Z,15.87
2022-10-31T19:45:34.117Z,19.77
2022-10-31T19:48:02.445Z,14.43
2022-10-31T19:50:31.290Z,16.87
2022-10-31T19:53:01.923Z,13.17
2022-10-31T19:55:29.971Z,19.73
2022-10-31T19:58:02.371Z,16.63
2022-10-31T20:00:30.565Z,18.40
2022-10-31T20:02:58.875Z,16.93
2022-10-31T20:05:27.571Z,16.37
2022-10-31T20:07:57.319Z,15.87
2022-10-31T20:10:27.010Z,18.83
2022-10-31T20:12:56.806Z,17.03
2022-10-31T20:15:24.793Z,18.73
2022-10-31T20:17:52.999Z,16.87
2022-10-31T20:20:21.718Z,15.80
2022-10-31T20:22:50.689Z,16.33
2022-10-31T20:25:19.124Z,17.90
2022-10-31T20:27:48.716Z,16.17
2022-10-31T20:30:17.175Z,20.27
2022-10-31T20:32:49.781Z,18.00
2022-10-31T20:35:19.272Z,21.03
2022-10-31T20:37:47.247Z,16.83
2022-10-31T20:40:15.302Z,14.37
2022-10-31T20:42:43.543Z,19.13
2022-10-31T20:45:13.071Z,15.53
2022-10-31T20:47:41.364Z,19.27
2022-10-31T20:50:10.230Z,18.60
2022-10-31T20:52:38.391Z,21.43
2022-10-31T20:55:07.248Z,20.83
2022-10-31T20:57:36.091Z,13.63
2022-10-31T21:00:06.026Z,27.07
2022-10-31T21:02:35.589Z,16.23
2022-10-31T21:05:08.487Z,15.57
2022-10-31T21:07:36.816Z,13.97
2022-10-31T21:10:15.033Z,15.50
2022-10-31T21:12:44.286Z,17.67
2022-10-31T21:15:13.897Z,20.57
2022-10-31T21:17:44.145Z,15.57
2022-10-31T21:20:12.324Z,18.70
2022-10-31T21:22:40.535Z,13.97
2022-10-31T21:25:09.098Z,15.73
2022-10-31T21:27:36.997Z,16.60
2022-10-31T21:30:06.037Z,16.13
2022-10-31T21:32:34.212Z,16.03
2022-10-31T21:35:03.765Z,16.20
2022-10-31T21:37:31.902Z,21.57
2022-10-31T21:40:00.106Z,15.90
2022-10-31T21:42:28.123Z,16.23
2022-10-31T21:44:56.238Z,16.10
2022-10-31T21:47:24.497Z,15.83
2022-10-31T21:49:52.652Z,12.53
2022-10-31T21:52:22.197Z,14.73
2022-10-31T21:54:49.423Z,20.10
2022-10-31T21:57:17.543Z,15.90
2022-10-31T21:59:48.537Z,16.50
2022-10-31T22:02:17.024Z,13.27
2022-10-31T22:04:45.746Z,18.10
2022-10-31T22:07:13.806Z,17.33
2022-10-31T22:09:47.442Z,15.67
2022-10-31T22:12:15.720Z,12.40
2022-10-31T22:14:43.979Z,16.00
2022-10-31T22:17:12.177Z,12.87
2022-10-31T22:19:40.395Z,14.37
2022-10-31T22:22:08.540Z,16.60
2022-10-31T22:24:36.653Z,15.97
2022-10-31T22:27:06.264Z,13.30
2022-10-31T22:29:35.570Z,12.40
2022-10-31T22:32:03.955Z,11.40
2022-10-31T22:34:32.101Z,16.03
2022-10-31T22:37:02.074Z,15.13
2022-10-31T22:39:30.201Z,14.73
2022-10-31T22:41:58.413Z,13.37
2022-10-31T22:44:27.720Z,16.73
2022-10-31T22:46:55.859Z,11.87
2022-10-31T22:49:24.187Z,12.13
2022-10-31T22:51:52.968Z,13.73
2022-10-31T22:54:21.207Z,16.13
2022-10-31T22:56:49.270Z,12.97
2022-10-31T22:59:17.995Z,14.17
2022-10-31T23:01:47.702Z,14.20
2022-10-31T23:04:17.450Z,14.03
2022-10-31T23:06:45.931Z,10.83
2022-10-31T23:09:16.718Z,8.90
2022-10-31T23:11:45.501Z,11.50
2022-10-31T23:14:16.450Z,11.27
2022-10-31T23:16:48.011Z,9.13
2022-10-31T23:19:17.673Z,12.53
2022-10-31T23:21:57.531Z,14.37
2022-10-31T23:24:28.372Z,11.47
2022-10-31T23:27:06.618Z,11.23
2022-10-31T23:29:35.659Z,11.07
2022-10-31T23:32:05.983Z,16.53
2022-10-31T23:34:34.279Z,13.10
2022-10-31T23:37:02.390Z,12.23
2022-10-31T23:39:30.335Z,12.50
2022-10-31T23:41:58.500Z,13.20
2022-10-31T23:44:26.717Z,12.13
2022-10-31T23:46:54.710Z,12.40
2022-10-31T23:49:24.178Z,13.00
2022-10-31T23:51:52.474Z,9.20
2022-10-31T23:54:20.533Z,15.23
2022-10-31T23:56:48.714Z,14.27
2022-10-31T23:59:16.848Z,15.10
